Time;durP1;ratioP1;P1;durP2;ratioP2;P2;SDS_P1;SDS_P2;PMS_P1;PMS_P2;Temp;Humidity;BMP_temperature;BMP_pressure;BME280_temperature;BME280_humidity;BME280_pressure;Samples;Min_cycle;Max_cycle;Signal;HPM_P1;HPM_P2
2023/02/13 00:00:24;;;;;;;;;;;4.40;99.90;;;;;;5122290;27;20313;-76
2023/02/13 00:02:51;;;;;;;;;;;4.50;99.90;;;;;;5121321;27;20015;-76
2023/02/13 00:05:18;;;;;;;;;;;4.50;99.90;;;;;;5132766;27;19923;-76
2023/02/13 00:07:45;;;;;;;;;;;4.40;99.90;;;;;;5130673;27;19930;-78
2023/02/13 00:10:12;;;;;;;;;;;4.30;99.90;;;;;;5122925;27;19928;-78
2023/02/13 00:12:38;;;;;;;;;;;4.30;99.90;;;;;;5133950;27;20010;-79
2023/02/13 00:15:07;;;;;;;;;;;4.40;99.90;;;;;;5131169;27;20290;-78
2023/02/13 00:17:34;;;;;;;;;;;4.50;99.90;;;;;;5127097;27;19949;-78
2023/02/13 00:20:00;;;;;;;;;;;4.50;99.90;;;;;;5123582;27;19954;-76
2023/02/13 00:22:27;;;;;;;;;;;4.50;99.90;;;;;;5117066;27;19932;-75
2023/02/13 00:24:54;;;;;;;;;;;4.40;99.90;;;;;;5124736;27;19928;-76
2023/02/13 00:27:20;;;;;;;;;;;4.50;99.90;;;;;;5132414;27;19930;-76
2023/02/13 00:29:47;;;;;;;;;;;4.50;99.90;;;;;;5119189;27;19929;-74
2023/02/13 00:32:15;;;;;;;;;;;4.50;99.90;;;;;;5124685;27;19974;-74
2023/02/13 00:34:42;;;;;;;;;;;4.50;99.90;;;;;;5130820;27;19962;-75
2023/02/13 00:37:09;;;;;;;;;;;4.50;99.90;;;;;;5142893;27;19923;-75
2023/02/13 00:39:36;;;;;;;;;;;4.40;99.90;;;;;;5131880;27;19923;-74
2023/02/13 00:42:02;;;;;;;;;;;4.20;99.90;;;;;;5120779;27;19923;-76
2023/02/13 00:44:29;;;;;;;;;;;4.20;99.90;;;;;;5128733;27;19924;-77
2023/02/13 00:46:56;;;;;;;;;;;4.30;99.90;;;;;;5116979;27;19923;-76
2023/02/13 00:49:24;;;;;;;;;;;4.30;99.90;;;;;;5120849;27;19924;-76
2023/02/13 00:51:50;;;;;;;;;;;4.20;99.90;;;;;;5124506;27;20381;-77
2023/02/13 00:54:17;;;;;;;;;;;4.10;99.90;;;;;;5122185;27;19938;-77
2023/02/13 00:56:44;;;;;;;;;;;4.10;99.90;;;;;;5117832;27;20254;-78
2023/02/13 00:59:10;;;;;;;;;;;4.10;99.90;;;;;;5119770;27;19924;-78
2023/02/13 01:01:37;;;;;;;;;;;4.00;99.90;;;;;;5118234;27;20014;-78
2023/02/13 01:04:04;;;;;;;;;;;4.20;99.90;;;;;;5127716;27;19929;-79
2023/02/13 01:06:32;;;;;;;;;;;4.20;99.90;;;;;;5122368;27;20018;-78
2023/02/13 01:08:58;;;;;;;;;;;4.00;99.90;;;;;;5123098;27;19937;-78
2023/02/13 01:11:25;;;;;;;;;;;4.00;99.90;;;;;;5130572;27;19923;-78
2023/02/13 01:13:52;;;;;;;;;;;4.00;99.90;;;;;;5122656;27;19923;-79
2023/02/13 01:16:18;;;;;;;;;;;3.90;99.90;;;;;;5128674;27;20350;-78
2023/02/13 01:18:45;;;;;;;;;;;3.80;99.90;;;;;;5122550;27;20326;-78
2023/02/13 01:21:15;;;;;;;;;;;3.70;99.90;;;;;;5119997;27;20276;-78
2023/02/13 01:23:44;;;;;;;;;;;3.50;99.90;;;;;;5120606;27;20346;-77
2023/02/13 01:26:13;;;;;;;;;;;3.50;99.90;;;;;;5114757;27;19930;-77
2023/02/13 01:28:40;;;;;;;;;;;3.60;99.90;;;;;;5113516;27;19924;-77
2023/02/13 01:31:06;;;;;;;;;;;3.50;99.90;;;;;;5123640;27;20022;-77
2023/02/13 01:33:34;;;;;;;;;;;3.40;99.90;;;;;;5121231;27;20422;-75
2023/02/13 01:36:05;;;;;;;;;;;3.30;99.90;;;;;;5112762;27;19976;-76
2023/02/13 01:38:31;;;;;;;;;;;3.20;99.90;;;;;;5120452;27;20003;-76
2023/02/13 01:41:00;;;;;;;;;;;3.20;99.90;;;;;;5124005;27;19928;-76
2023/02/13 01:43:42;;;;;;;;;;;3.20;99.90;;;;;;5118951;27;19980;-76
2023/02/13 01:46:10;;;;;;;;;;;3.10;99.90;;;;;;5131544;27;19971;-76
2023/02/13 01:48:36;;;;;;;;;;;3.10;99.90;;;;;;5114766;27;19923;-76
2023/02/13 01:51:06;;;;;;;;;;;3.00;99.90;;;;;;5130831;27;19924;-76
2023/02/13 01:53:34;;;;;;;;;;;3.00;99.90;;;;;;5118208;27;19923;-76
2023/02/13 01:56:08;;;;;;;;;;;3.00;99.90;;;;;;5116976;27;19930;-76
2023/02/13 01:58:36;;;;;;;;;;;2.90;99.90;;;;;;5124348;27;19927;-76
2023/02/13 02:01:06;;;;;;;;;;;2.90;99.90;;;;;;5121035;27;19923;-75
2023/02/13 02:03:35;;;;;;;;;;;2.80;99.90;;;;;;5119548;27;20013;-76
2023/02/13 02:06:02;;;;;;;;;;;2.80;99.90;;;;;;5113856;28;19924;-76
2023/02/13 02:08:29;;;;;;;;;;;2.80;99.90;;;;;;5112496;28;19924;-75
2023/02/13 02:10:57;;;;;;;;;;;2.70;99.90;;;;;;5111885;28;20507;-76
2023/02/13 02:13:26;;;;;;;;;;;2.50;99.90;;;;;;5121167;28;19936;-75
2023/02/13 02:15:52;;;;;;;;;;;2.50;99.90;;;;;;5121473;28;19974;-76
2023/02/13 02:18:20;;;;;;;;;;;2.70;99.90;;;;;;5112717;28;19924;-76
2023/02/13 02:21:03;;;;;;;;;;;2.60;99.90;;;;;;5117479;28;19975;-75
2023/02/13 02:23:40;;;;;;;;;;;2.60;99.90;;;;;;5125893;28;19923;-76
2023/02/13 02:26:16;;;;;;;;;;;2.60;99.90;;;;;;5122094;28;20388;-75
2023/02/13 02:28:56;;;;;;;;;;;2.60;99.90;;;;;;5127628;28;19933;-75
2023/02/13 02:31:53;;;;;;;;;;;2.60;99.90;;;;;;5121591;28;19975;-76
2023/02/13 02:34:27;;;;;;;;;;;2.60;99.90;;;;;;5053730;28;19931;-76
2023/02/13 02:37:01;;;;;;;;;;;2.50;99.90;;;;;;5109604;28;19939;-77
2023/02/13 02:39:32;;;;;;;;;;;2.40;99.90;;;;;;5117620;28;19923;-76
2023/02/13 02:42:07;;;;;;;;;;;2.40;99.90;;;;;;5119375;28;19985;-77
2023/02/13 02:44:38;;;;;;;;;;;2.50;99.90;;;;;;5121539;28;19963;-77
2023/02/13 02:50:03;;;;;;;;;;;2.40;99.90;;;;;;5117301;28;19930;-78
2023/02/13 02:52:45;;;;;;;;;;;2.50;99.90;;;;;;5115414;27;19927;-77
2023/02/13 02:55:17;;;;;;;;;;;2.20;99.90;;;;;;5116196;27;20560;-77
2023/02/13 03:06:13;;;;;;;;;;;2.20;99.90;;;;;;5121249;28;19931;-78
2023/02/13 03:14:14;;;;;;;;;;;2.20;99.90;;;;;;5113186;28;19976;-77
2023/02/13 03:22:24;;;;;;;;;;;2.20;99.90;;;;;;5118689;27;19931;-76
2023/02/13 03:24:54;;;;;;;;;;;2.30;99.90;;;;;;5124724;27;19930;-76
2023/02/13 03:30:12;;;;;;;;;;;2.20;99.90;;;;;;5121792;27;19931;-76
2023/02/13 03:32:42;;;;;;;;;;;2.30;99.90;;;;;;5128969;27;20392;-77
2023/02/13 03:38:10;;;;;;;;;;;2.30;99.90;;;;;;5121693;27;19968;-76
2023/02/13 03:41:17;;;;;;;;;;;2.20;99.90;;;;;;5129006;27;19923;-76
2023/02/13 03:43:32;;;;;;;;;;;2.20;99.90;;;;;;5126477;27;20306;-77
2023/02/13 03:46:01;;;;;;;;;;;2.20;99.90;;;;;;5121907;27;19923;-76
2023/02/13 03:51:17;;;;;;;;;;;2.10;99.90;;;;;;5126720;27;19930;-76
2023/02/13 03:53:46;;;;;;;;;;;2.10;99.90;;;;;;5120387;27;20554;-75
2023/02/13 03:59:15;;;;;;;;;;;2.10;99.90;;;;;;5122548;27;20057;-78
2023/02/13 04:01:44;;;;;;;;;;;2.00;99.90;;;;;;5130167;27;19939;-77
2023/02/13 04:04:14;;;;;;;;;;;2.00;99.90;;;;;;5126435;27;19946;-77
2023/02/13 04:06:45;;;;;;;;;;;2.00;99.90;;;;;;5121208;27;19923;-77
2023/02/13 04:09:13;;;;;;;;;;;2.00;99.90;;;;;;5128617;27;19945;-76
2023/02/13 04:11:42;;;;;;;;;;;1.90;99.90;;;;;;5131730;27;19946;-78
2023/02/13 04:14:13;;;;;;;;;;;2.00;99.90;;;;;;5122123;27;19932;-75
2023/02/13 04:16:41;;;;;;;;;;;2.10;99.90;;;;;;5123992;27;19930;-75
2023/02/13 04:19:08;;;;;;;;;;;2.20;99.90;;;;;;5116866;27;19927;-76
2023/02/13 04:21:35;;;;;;;;;;;2.20;99.90;;;;;;5114421;27;19927;-76
2023/02/13 04:24:02;;;;;;;;;;;2.20;99.90;;;;;;5122495;27;19963;-77
2023/02/13 04:26:36;;;;;;;;;;;2.20;99.90;;;;;;5129290;27;19923;-78
2023/02/13 04:29:02;;;;;;;;;;;2.30;99.90;;;;;;5127571;27;19930;-76
2023/02/13 04:31:29;;;;;;;;;;;2.20;99.90;;;;;;5126762;27;20034;-77
2023/02/13 04:33:56;;;;;;;;;;;2.20;99.90;;;;;;5126608;27;19931;-77
2023/02/13 04:36:23;;;;;;;;;;;2.10;99.90;;;;;;5128223;27;19930;-76
2023/02/13 04:38:52;;;;;;;;;;;2.00;99.90;;;;;;5127567;27;19930;-77
2023/02/13 04:41:19;;;;;;;;;;;1.80;99.90;;;;;;5116554;27;19979;-77
2023/02/13 04:43:47;;;;;;;;;;;1.70;99.90;;;;;;5114978;27;20425;-78
2023/02/13 04:46:14;;;;;;;;;;;1.60;99.90;;;;;;5123954;27;19988;-76
2023/02/13 04:48:41;;;;;;;;;;;1.60;99.90;;;;;;5115543;27;19924;-77
2023/02/13 04:51:07;;;;;;;;;;;1.40;99.90;;;;;;5124426;27;20434;-77
2023/02/13 04:53:34;;;;;;;;;;;1.40;99.90;;;;;;5124593;27;20392;-76
2023/02/13 04:56:01;;;;;;;;;;;1.40;99.90;;;;;;5129569;27;20400;-76
2023/02/13 04:58:28;;;;;;;;;;;1.30;99.90;;;;;;5119570;27;19927;-76
2023/02/13 05:00:56;;;;;;;;;;;1.30;99.90;;;;;;5117510;27;19930;-77
2023/02/13 05:03:22;;;;;;;;;;;1.30;99.90;;;;;;5112992;27;19927;-77
2023/02/13 05:05:49;;;;;;;;;;;1.30;99.90;;;;;;5113750;27;20030;-77
2023/02/13 05:08:16;;;;;;;;;;;1.20;99.90;;;;;;5118232;27;19924;-76
2023/02/13 05:10:42;;;;;;;;;;;1.10;99.90;;;;;;5125596;27;20305;-78
2023/02/13 05:13:09;;;;;;;;;;;1.00;99.90;;;;;;5126147;27;20392;-79
2023/02/13 05:15:36;;;;;;;;;;;1.00;99.90;;;;;;5122831;27;20370;-79
2023/02/13 05:18:04;;;;;;;;;;;0.90;99.90;;;;;;5121555;27;19930;-76
2023/02/13 05:20:30;;;;;;;;;;;0.90;99.90;;;;;;5126005;27;19931;-74
2023/02/13 05:25:41;;;;;;;;;;;0.90;99.90;;;;;;5126699;27;20458;-74
2023/02/13 05:29:17;;;;;;;;;;;0.90;99.90;;;;;;5124216;27;19948;-72
2023/02/13 05:30:56;;;;;;;;;;;0.90;99.90;;;;;;5126076;27;20402;-72
2023/02/13 05:33:24;;;;;;;;;;;0.80;99.90;;;;;;5112497;27;19924;-72
2023/02/13 05:35:50;;;;;;;;;;;0.80;99.90;;;;;;5113070;27;20022;-72
2023/02/13 05:38:17;;;;;;;;;;;0.70;99.90;;;;;;5118742;27;19924;-72
2023/02/13 05:40:44;;;;;;;;;;;0.70;99.90;;;;;;5125929;27;19934;-72
2023/02/13 05:43:10;;;;;;;;;;;0.80;99.90;;;;;;5129181;27;20018;-72
2023/02/13 05:45:37;;;;;;;;;;;0.80;99.90;;;;;;5124190;27;19974;-73
2023/02/13 05:48:04;;;;;;;;;;;0.80;99.90;;;;;;5132550;27;20430;-74
2023/02/13 05:50:32;;;;;;;;;;;0.90;99.90;;;;;;5121452;27;19923;-73
2023/02/13 05:52:58;;;;;;;;;;;0.90;99.90;;;;;;5119717;27;20305;-72
2023/02/13 05:55:25;;;;;;;;;;;0.90;99.90;;;;;;5114464;27;19924;-73
2023/02/13 05:57:55;;;;;;;;;;;0.90;99.90;;;;;;5114110;27;20723;-72
2023/02/13 06:00:22;;;;;;;;;;;0.80;99.90;;;;;;5126673;27;19967;-73
2023/02/13 06:02:49;;;;;;;;;;;0.80;99.90;;;;;;5122969;27;19924;-72
2023/02/13 06:05:16;;;;;;;;;;;0.70;99.90;;;;;;5130257;27;20010;-73
2023/02/13 06:07:46;;;;;;;;;;;0.70;99.90;;;;;;5114647;28;19923;-72
2023/02/13 06:10:13;;;;;;;;;;;0.80;99.90;;;;;;5126905;27;20047;-72
2023/02/13 06:12:40;;;;;;;;;;;0.40;99.90;;;;;;5123957;28;20006;-73
2023/02/13 06:15:07;;;;;;;;;;;0.30;99.90;;;;;;5125939;28;19938;-74
2023/02/13 06:17:33;;;;;;;;;;;0.30;99.90;;;;;;5123496;28;19923;-72
2023/02/13 06:20:00;;;;;;;;;;;0.20;99.90;;;;;;5119026;28;19923;-72
2023/02/13 06:22:27;;;;;;;;;;;0.20;99.90;;;;;;5116791;28;20382;-72
2023/02/13 06:24:55;;;;;;;;;;;0.20;99.90;;;;;;5120519;28;19923;-72
2023/02/13 06:27:21;;;;;;;;;;;0.10;99.90;;;;;;5122926;28;19931;-71
2023/02/13 06:29:48;;;;;;;;;;;0.10;99.90;;;;;;5123589;28;20018;-72
2023/02/13 06:32:15;;;;;;;;;;;0.00;99.90;;;;;;5116538;28;19924;-72
2023/02/13 06:34:41;;;;;;;;;;;0.00;99.90;;;;;;5115587;28;19998;-73
2023/02/13 06:37:08;;;;;;;;;;;0.00;99.90;;;;;;5118362;28;20366;-72
2023/02/13 06:39:34;;;;;;;;;;;0.00;99.90;;;;;;5121091;28;20391;-72
2023/02/13 06:42:02;;;;;;;;;;;0.00;99.90;;;;;;5118453;28;20275;-72
2023/02/13 06:44:29;;;;;;;;;;;-0.10;99.90;;;;;;5121257;28;20010;-72
2023/02/13 06:46:56;;;;;;;;;;;-0.10;99.90;;;;;;5117909;28;19947;-73
2023/02/13 06:49:22;;;;;;;;;;;-0.10;99.90;;;;;;5125773;27;19923;-73
2023/02/13 06:51:49;;;;;;;;;;;-0.10;99.90;;;;;;5125534;27;19923;-73
2023/02/13 06:54:16;;;;;;;;;;;-0.10;99.90;;;;;;5121094;27;20002;-73
2023/02/13 06:56:42;;;;;;;;;;;-0.10;99.90;;;;;;5124559;27;20339;-73
2023/02/13 06:59:10;;;;;;;;;;;-0.10;99.90;;;;;;5124469;27;19935;-72
2023/02/13 07:01:37;;;;;;;;;;;-0.10;99.90;;;;;;5125959;27;19927;-72
2023/02/13 07:04:04;;;;;;;;;;;0.00;99.90;;;;;;5125561;27;19931;-73
2023/02/13 07:06:31;;;;;;;;;;;0.10;99.90;;;;;;5121122;27;20440;-74
2023/02/13 07:08:57;;;;;;;;;;;0.20;99.90;;;;;;5126463;27;19927;-73
2023/02/13 07:11:25;;;;;;;;;;;0.30;99.90;;;;;;5117169;27;19941;-74
2023/02/13 07:13:51;;;;;;;;;;;0.20;99.90;;;;;;5118489;27;19930;-74
2023/02/13 07:16:20;;;;;;;;;;;0.10;99.90;;;;;;5127253;27;20406;-74
2023/02/13 07:18:46;;;;;;;;;;;0.10;99.90;;;;;;5125663;27;20018;-79
2023/02/13 07:21:13;;;;;;;;;;;0.20;99.90;;;;;;5124613;27;19928;-78
2023/02/13 07:23:40;;;;;;;;;;;0.20;99.90;;;;;;5121801;27;19927;-79
2023/02/13 07:26:07;;;;;;;;;;;0.20;99.90;;;;;;5125277;27;19924;-79
2023/02/13 07:28:33;;;;;;;;;;;0.20;99.90;;;;;;5116015;27;19999;-78
2023/02/13 07:31:04;;;;;;;;;;;0.20;99.90;;;;;;5129230;27;19923;-79
2023/02/13 07:33:33;;;;;;;;;;;0.10;99.90;;;;;;5123612;27;19923;-77
2023/02/13 07:36:02;;;;;;;;;;;0.30;99.90;;;;;;5118651;27;20332;-81
2023/02/13 07:38:29;;;;;;;;;;;0.40;99.90;;;;;;5128815;27;20371;-79
2023/02/13 07:40:57;;;;;;;;;;;0.50;99.90;;;;;;5124375;27;19927;-80
2023/02/13 07:43:24;;;;;;;;;;;0.60;99.90;;;;;;5126515;27;19981;-78
2023/02/13 07:45:54;;;;;;;;;;;0.60;99.90;;;;;;5122569;27;19923;-79
2023/02/13 07:48:21;;;;;;;;;;;0.50;99.90;;;;;;5121658;27;20465;-81
2023/02/13 07:50:49;;;;;;;;;;;0.60;99.90;;;;;;5118800;27;19930;-81
2023/02/13 07:53:15;;;;;;;;;;;0.70;99.90;;;;;;5124272;27;19924;-81
2023/02/13 07:55:42;;;;;;;;;;;0.70;99.90;;;;;;5117836;27;19932;-80
2023/02/13 07:58:09;;;;;;;;;;;0.70;99.90;;;;;;5123616;27;19963;-81
2023/02/13 08:00:35;;;;;;;;;;;0.90;99.90;;;;;;5120362;27;19932;-79
2023/02/13 08:03:02;;;;;;;;;;;1.00;99.90;;;;;;5119456;27;19931;-72
2023/02/13 08:05:30;;;;;;;;;;;1.10;99.90;;;;;;5118747;27;19957;-80
2023/02/13 08:07:59;;;;;;;;;;;1.10;99.90;;;;;;5128934;27;20378;-79
2023/02/13 08:13:11;;;;;;;;;;;1.30;99.90;;;;;;5129606;27;19934;-79
2023/02/13 08:15:38;;;;;;;;;;;1.40;99.90;;;;;;5122392;27;20162;-74
2023/02/13 08:18:05;;;;;;;;;;;1.40;99.90;;;;;;5124780;27;19927;-74
2023/02/13 08:20:31;;;;;;;;;;;1.30;99.90;;;;;;5122885;27;19923;-73
2023/02/13 08:23:04;;;;;;;;;;;1.40;99.90;;;;;;5131696;27;19923;-74
2023/02/13 08:25:30;;;;;;;;;;;1.60;99.90;;;;;;5123970;27;19927;-73
2023/02/13 08:27:57;;;;;;;;;;;1.90;99.90;;;;;;5124532;27;20038;-74
2023/02/13 08:30:24;;;;;;;;;;;3.80;99.90;;;;;;5117081;27;19930;-74
2023/02/13 08:32:51;;;;;;;;;;;5.10;99.90;;;;;;5119036;27;19924;-73
2023/02/13 08:35:17;;;;;;;;;;;5.10;99.90;;;;;;5129541;27;19932;-73
2023/02/13 08:37:44;;;;;;;;;;;5.90;99.90;;;;;;5112319;27;19930;-73
2023/02/13 08:40:12;;;;;;;;;;;7.30;99.90;;;;;;5120937;27;20325;-73
2023/02/13 08:42:39;;;;;;;;;;;7.90;99.90;;;;;;5121136;27;19931;-74
2023/02/13 08:45:06;;;;;;;;;;;8.90;99.90;;;;;;5124524;27;19930;-72
2023/02/13 08:47:33;;;;;;;;;;;9.20;99.90;;;;;;5137299;27;19923;-73
2023/02/13 08:49:59;;;;;;;;;;;9.40;99.90;;;;;;5110084;27;20016;-73
2023/02/13 08:52:26;;;;;;;;;;;9.40;99.90;;;;;;5112346;27;20011;-72
2023/02/13 08:54:53;;;;;;;;;;;9.90;99.90;;;;;;5113891;27;20336;-72
2023/02/13 08:57:21;;;;;;;;;;;9.30;99.90;;;;;;5126765;27;19943;-74
2023/02/13 08:59:48;;;;;;;;;;;9.10;99.90;;;;;;5125994;27;20012;-73
2023/02/13 09:02:14;;;;;;;;;;;9.70;99.90;;;;;;5132342;27;19970;-72
2023/02/13 09:04:41;;;;;;;;;;;10.90;99.90;;;;;;5120940;27;20008;-74
2023/02/13 09:07:08;;;;;;;;;;;11.50;95.10;;;;;;5116679;27;19930;-72
2023/02/13 09:09:34;;;;;;;;;;;11.30;94.40;;;;;;5112006;27;20016;-73
2023/02/13 09:12:01;;;;;;;;;;;11.70;94.20;;;;;;5113680;27;20388;-73
2023/02/13 09:14:29;;;;;;;;;;;10.10;96.10;;;;;;5115825;27;19989;-73
2023/02/13 09:16:56;;;;;;;;;;;9.60;99.70;;;;;;5121803;27;20014;-73
2023/02/13 09:19:23;;;;;;;;;;;10.00;99.60;;;;;;5114474;27;20018;-74
2023/02/13 09:21:49;;;;;;;;;;;9.60;99.90;;;;;;5110975;27;19924;-73
2023/02/13 09:24:16;;;;;;;;;;;9.50;99.90;;;;;;5111127;27;20377;-73
2023/02/13 09:26:43;;;;;;;;;;;9.70;99.90;;;;;;5111862;27;19963;-73
2023/02/13 09:29:09;;;;;;;;;;;10.50;99.80;;;;;;5112899;27;20383;-73
2023/02/13 09:31:37;;;;;;;;;;;10.80;97.00;;;;;;5113328;27;20454;-74
2023/02/13 09:34:04;;;;;;;;;;;11.00;97.60;;;;;;5116345;27;19927;-74
2023/02/13 09:36:32;;;;;;;;;;;10.40;99.80;;;;;;5115079;27;20042;-74
2023/02/13 09:38:59;;;;;;;;;;;10.40;99.30;;;;;;5112712;27;19950;-73
2023/02/13 09:41:27;;;;;;;;;;;11.50;99.80;;;;;;5116343;27;19942;-74
2023/02/13 09:43:57;;;;;;;;;;;12.90;94.60;;;;;;5115181;27;20003;-74
2023/02/13 09:46:27;;;;;;;;;;;12.50;96.00;;;;;;5111484;27;20033;-77
2023/02/13 09:48:56;;;;;;;;;;;11.20;97.10;;;;;;5119852;27;19928;-77
2023/02/13 09:51:24;;;;;;;;;;;10.30;98.60;;;;;;5119751;27;19930;-77
2023/02/13 09:53:53;;;;;;;;;;;9.10;99.90;;;;;;5110999;27;19928;-78
2023/02/13 09:56:22;;;;;;;;;;;8.10;99.90;;;;;;5118906;27;19930;-77
2023/02/13 09:58:49;;;;;;;;;;;7.80;99.90;;;;;;5113525;27;19928;-77
2023/02/13 10:01:23;;;;;;;;;;;7.90;99.90;;;;;;5123672;27;19924;-77
2023/02/13 10:03:53;;;;;;;;;;;7.80;99.90;;;;;;5115432;27;19932;-76
2023/02/13 10:06:24;;;;;;;;;;;7.90;99.90;;;;;;5119450;27;19923;-76
2023/02/13 10:08:58;;;;;;;;;;;8.00;99.90;;;;;;5116682;27;19977;-76
2023/02/13 10:11:40;;;;;;;;;;;8.10;99.90;;;;;;5116557;27;19932;-76
2023/02/13 10:14:11;;;;;;;;;;;7.90;99.90;;;;;;5115317;27;19928;-76
2023/02/13 10:16:41;;;;;;;;;;;7.80;99.90;;;;;;5116630;27;20015;-77
2023/02/13 10:19:14;;;;;;;;;;;7.50;99.90;;;;;;5118638;27;19949;-76
2023/02/13 10:21:49;;;;;;;;;;;7.30;99.90;;;;;;5113969;27;19930;-77
2023/02/13 10:24:25;;;;;;;;;;;7.30;99.90;;;;;;5113800;27;20078;-76
2023/02/13 10:26:52;;;;;;;;;;;7.50;99.90;;;;;;5118785;27;19946;-77
2023/02/13 10:32:08;;;;;;;;;;;7.90;99.90;;;;;;5118455;27;19931;-76
2023/02/13 10:34:37;;;;;;;;;;;8.10;99.90;;;;;;5123714;27;19934;-76
2023/02/13 10:37:09;;;;;;;;;;;8.30;99.90;;;;;;5114395;27;19924;-76
2023/02/13 10:39:36;;;;;;;;;;;8.00;99.90;;;;;;5117309;27;19970;-77
2023/02/13 10:42:06;;;;;;;;;;;7.90;99.90;;;;;;5120158;27;19924;-76
2023/02/13 10:44:45;;;;;;;;;;;8.00;99.90;;;;;;5127808;27;19924;-78
2023/02/13 10:47:18;;;;;;;;;;;8.00;99.90;;;;;;5122668;27;19959;-74
2023/02/13 10:49:51;;;;;;;;;;;8.10;99.90;;;;;;5117936;27;20294;-72
2023/02/13 10:52:25;;;;;;;;;;;8.20;99.90;;;;;;5124125;27;20412;-74
2023/02/13 10:55:05;;;;;;;;;;;8.20;99.90;;;;;;5122188;27;19931;-72
2023/02/13 10:57:38;;;;;;;;;;;8.30;99.90;;;;;;5115724;27;19924;-75
2023/02/13 11:00:10;;;;;;;;;;;8.50;99.90;;;;;;5121062;27;19927;-73
2023/02/13 11:02:37;;;;;;;;;;;8.60;99.90;;;;;;5118470;27;19946;-73
2023/02/13 11:05:12;;;;;;;;;;;8.80;99.90;;;;;;5117157;27;20014;-72
2023/02/13 11:07:41;;;;;;;;;;;8.90;99.90;;;;;;5120856;27;19942;-74
2023/02/13 11:10:14;;;;;;;;;;;8.80;99.90;;;;;;5122000;27;19970;-73
2023/02/13 11:12:40;;;;;;;;;;;8.90;99.90;;;;;;5117411;27;20503;-73
2023/02/13 11:15:19;;;;;;;;;;;8.90;99.90;;;;;;5117841;27;19981;-73
2023/02/13 11:17:46;;;;;;;;;;;9.00;99.90;;;;;;5119240;27;20280;-66
2023/02/13 11:20:23;;;;;;;;;;;9.20;99.90;;;;;;5121594;27;21490;-73
2023/02/13 11:22:51;;;;;;;;;;;9.30;99.90;;;;;;5122248;27;20027;-72
2023/02/13 11:25:19;;;;;;;;;;;9.50;99.90;;;;;;5122255;27;20022;-72
2023/02/13 11:27:49;;;;;;;;;;;9.50;99.90;;;;;;5117207;27;20018;-72
2023/02/13 11:30:32;;;;;;;;;;;9.30;99.90;;;;;;5117142;27;19937;-71
2023/02/13 11:32:59;;;;;;;;;;;9.30;99.90;;;;;;5121702;27;20371;-73
2023/02/13 11:35:28;;;;;;;;;;;9.50;99.90;;;;;;5114533;27;20379;-73
2023/02/13 11:38:21;;;;;;;;;;;9.50;99.90;;;;;;5116992;27;19951;-73
2023/02/13 11:40:49;;;;;;;;;;;9.60;99.90;;;;;;5120576;27;20495;-73
2023/02/13 11:43:18;;;;;;;;;;;9.90;99.90;;;;;;5118371;27;20038;-74
2023/02/13 11:45:44;;;;;;;;;;;10.00;99.90;;;;;;5115232;27;19924;-73
2023/02/13 11:48:19;;;;;;;;;;;10.20;99.90;;;;;;5117429;27;20011;-73
2023/02/13 11:50:51;;;;;;;;;;;10.30;99.90;;;;;;5114628;27;19924;-73
2023/02/13 11:53:21;;;;;;;;;;;10.40;99.90;;;;;;5117940;27;19963;-74
2023/02/13 11:56:01;;;;;;;;;;;10.30;99.90;;;;;;5113313;27;19930;-73
2023/02/13 11:58:29;;;;;;;;;;;10.40;99.90;;;;;;5119262;27;20018;-74
2023/02/13 12:01:07;;;;;;;;;;;10.40;99.90;;;;;;5129327;27;19923;-73
2023/02/13 12:03:34;;;;;;;;;;;10.20;99.90;;;;;;5120994;27;19931;-74
2023/02/13 12:06:02;;;;;;;;;;;10.40;99.90;;;;;;5115442;27;19951;-73
2023/02/13 12:08:30;;;;;;;;;;;10.40;99.90;;;;;;5113349;27;19923;-73
2023/02/13 12:10:58;;;;;;;;;;;10.50;99.90;;;;;;5112469;27;19924;-73
2023/02/13 12:13:27;;;;;;;;;;;10.40;99.90;;;;;;5116806;27;19931;-72
2023/02/13 12:15:57;;;;;;;;;;;10.60;99.90;;;;;;5122166;27;19971;-73
2023/02/13 12:18:27;;;;;;;;;;;10.70;99.90;;;;;;5119979;27;20015;-74
2023/02/13 12:20:57;;;;;;;;;;;10.90;99.90;;;;;;5114804;27;20022;-73
2023/02/13 12:23:29;;;;;;;;;;;11.10;99.90;;;;;;5121030;27;19974;-74
2023/02/13 12:26:07;;;;;;;;;;;11.10;99.90;;;;;;5119320;27;19974;-74
2023/02/13 12:28:42;;;;;;;;;;;10.90;99.90;;;;;;5121775;27;19930;-74
2023/02/13 12:31:25;;;;;;;;;;;10.90;99.90;;;;;;5116600;27;20378;-74
2023/02/13 12:34:16;;;;;;;;;;;10.80;99.90;;;;;;5124907;27;19935;-74
2023/02/13 12:36:47;;;;;;;;;;;10.80;99.90;;;;;;5116481;27;20365;-74
2023/02/13 12:39:17;;;;;;;;;;;10.80;99.90;;;;;;5115717;27;19923;-74
2023/02/13 12:41:49;;;;;;;;;;;10.70;99.90;;;;;;5121140;27;19943;-72
2023/02/13 12:44:32;;;;;;;;;;;10.80;99.90;;;;;;5117250;27;19949;-74
2023/02/13 12:47:05;;;;;;;;;;;10.90;99.90;;;;;;5113861;27;20022;-75
2023/02/13 12:50:02;;;;;;;;;;;11.00;99.90;;;;;;5116255;27;19924;-73
2023/02/13 12:52:35;;;;;;;;;;;11.10;99.90;;;;;;5041719;28;20012;-73
2023/02/13 12:55:11;;;;;;;;;;;11.00;99.90;;;;;;5099128;27;20376;-74
2023/02/13 12:57:45;;;;;;;;;;;10.90;99.90;;;;;;5111257;27;19940;-73
2023/02/13 13:00:18;;;;;;;;;;;10.80;99.90;;;;;;5112668;27;19923;-73
2023/02/13 13:02:54;;;;;;;;;;;10.70;99.90;;;;;;5116865;27;20396;-74
2023/02/13 13:05:28;;;;;;;;;;;10.90;99.90;;;;;;5126925;27;19930;-74
2023/02/13 13:08:10;;;;;;;;;;;11.00;99.90;;;;;;5118283;27;19935;-73
2023/02/13 13:10:45;;;;;;;;;;;10.80;99.90;;;;;;5122623;27;20365;-73
2023/02/13 13:13:20;;;;;;;;;;;11.00;99.90;;;;;;5113699;27;19945;-74
2023/02/13 13:15:52;;;;;;;;;;;11.30;99.90;;;;;;5121819;27;19924;-73
2023/02/13 13:18:27;;;;;;;;;;;11.40;99.90;;;;;;5119117;27;19923;-73
2023/02/13 13:21:03;;;;;;;;;;;11.30;99.90;;;;;;5115448;27;19924;-73
2023/02/13 13:23:32;;;;;;;;;;;11.30;99.90;;;;;;5118123;27;19931;-72
2023/02/13 13:26:05;;;;;;;;;;;11.20;99.90;;;;;;5117201;27;19927;-72
2023/02/13 13:28:35;;;;;;;;;;;11.40;99.90;;;;;;5111202;27;20286;-73
2023/02/13 13:31:02;;;;;;;;;;;11.70;99.90;;;;;;5117058;27;20014;-72
2023/02/13 13:33:30;;;;;;;;;;;11.70;99.90;;;;;;5114245;27;19924;-73
2023/02/13 13:35:59;;;;;;;;;;;11.60;99.90;;;;;;5114804;27;19954;-73
2023/02/13 13:38:33;;;;;;;;;;;11.40;99.90;;;;;;5118204;27;19924;-72
2023/02/13 13:41:01;;;;;;;;;;;11.40;99.90;;;;;;5122266;27;19930;-75
2023/02/13 13:43:33;;;;;;;;;;;11.50;99.90;;;;;;5111160;27;20409;-76
2023/02/13 13:46:06;;;;;;;;;;;11.50;99.90;;;;;;5124858;27;19931;-76
2023/02/13 13:48:40;;;;;;;;;;;11.60;99.90;;;;;;5127354;27;19950;-75
2023/02/13 13:51:07;;;;;;;;;;;11.80;99.90;;;;;;5115779;27;19930;-75
2023/02/13 13:53:34;;;;;;;;;;;12.00;99.90;;;;;;5115957;27;20277;-76
2023/02/13 13:56:07;;;;;;;;;;;12.10;99.90;;;;;;5112647;27;20379;-74
2023/02/13 13:58:39;;;;;;;;;;;12.10;99.90;;;;;;5116438;27;20467;-75
2023/02/13 14:01:27;;;;;;;;;;;11.80;99.90;;;;;;5120910;27;19924;-74
2023/02/13 14:03:55;;;;;;;;;;;11.80;99.90;;;;;;5112352;27;19970;-73
2023/02/13 14:06:23;;;;;;;;;;;11.80;99.90;;;;;;5113403;27;19936;-73
2023/02/13 14:09:02;;;;;;;;;;;11.90;99.90;;;;;;5119879;27;21537;-74
2023/02/13 14:11:30;;;;;;;;;;;12.00;99.90;;;;;;5127130;27;19924;-74
2023/02/13 14:13:57;;;;;;;;;;;12.00;99.90;;;;;;5113384;27;20344;-73
2023/02/13 14:16:39;;;;;;;;;;;12.10;99.90;;;;;;5115122;28;20396;-74
2023/02/13 14:19:06;;;;;;;;;;;12.10;99.90;;;;;;5114444;27;20412;-74
2023/02/13 14:21:33;;;;;;;;;;;12.20;99.90;;;;;;5113040;27;19930;-73
2023/02/13 14:24:02;;;;;;;;;;;12.20;99.90;;;;;;5111666;27;20342;-74
2023/02/13 14:26:34;;;;;;;;;;;12.10;99.90;;;;;;5122929;27;19924;-74
2023/02/13 14:29:12;;;;;;;;;;;12.20;99.90;;;;;;5112042;27;20011;-74
2023/02/13 14:31:42;;;;;;;;;;;12.20;99.90;;;;;;5120268;27;20006;-73
2023/02/13 14:34:18;;;;;;;;;;;12.10;99.90;;;;;;5122762;27;19928;-74
2023/02/13 14:36:45;;;;;;;;;;;12.00;99.90;;;;;;5123304;27;19930;-75
2023/02/13 14:39:20;;;;;;;;;;;12.10;99.90;;;;;;5123466;27;20014;-75
2023/02/13 14:41:57;;;;;;;;;;;12.10;99.90;;;;;;5112972;28;19928;-73
2023/02/13 14:44:25;;;;;;;;;;;12.10;99.90;;;;;;5123615;27;19986;-74
2023/02/13 14:46:54;;;;;;;;;;;11.90;99.90;;;;;;5114340;27;19998;-74
2023/02/13 14:49:22;;;;;;;;;;;11.90;99.90;;;;;;5112717;27;20314;-74
2023/02/13 14:51:50;;;;;;;;;;;11.90;99.90;;;;;;5110554;27;20453;-74
2023/02/13 14:54:22;;;;;;;;;;;11.90;99.90;;;;;;5120282;27;19958;-73
2023/02/13 14:56:50;;;;;;;;;;;11.90;99.90;;;;;;5117524;28;19923;-74
2023/02/13 14:59:18;;;;;;;;;;;11.90;99.90;;;;;;5118865;28;19923;-75
2023/02/13 15:01:48;;;;;;;;;;;11.90;99.90;;;;;;5114124;27;19963;-74
2023/02/13 15:04:17;;;;;;;;;;;11.80;99.90;;;;;;5115416;28;19923;-73
2023/02/13 15:06:48;;;;;;;;;;;11.70;99.90;;;;;;5117036;27;19924;-74
2023/02/13 15:09:19;;;;;;;;;;;11.70;99.90;;;;;;5116939;28;20018;-73
2023/02/13 15:11:46;;;;;;;;;;;11.70;99.90;;;;;;5117754;27;19923;-74
2023/02/13 15:14:17;;;;;;;;;;;11.80;99.90;;;;;;5120564;27;19927;-75
2023/02/13 15:16:45;;;;;;;;;;;11.70;99.90;;;;;;5122387;27;19939;-74
2023/02/13 15:19:17;;;;;;;;;;;11.70;99.90;;;;;;5120616;27;19924;-76
2023/02/13 15:21:47;;;;;;;;;;;11.80;99.90;;;;;;5122295;27;19931;-75